createdAt,value
2023-09-27T00:00:05.865Z,100.00
2023-09-27T00:02:32.709Z,100.00
2023-09-27T00:04:59.866Z,100.00
2023-09-27T00:07:27.246Z,100.00
2023-09-27T00:09:54.536Z,100.00
2023-09-27T00:12:22.166Z,100.00
2023-09-27T00:14:49.481Z,100.00
2023-09-27T00:17:16.521Z,100.00
2023-09-27T00:19:43.636Z,100.00
2023-09-27T00:22:11.483Z,100.00
2023-09-27T00:24:39.118Z,100.00
2023-09-27T00:27:06.275Z,100.00
2023-09-27T00:29:33.324Z,100.00
2023-09-27T00:32:00.782Z,100.00
2023-09-27T00:34:27.930Z,100.00
2023-09-27T00:36:55.083Z,100.00
2023-09-27T00:39:22.341Z,100.00
2023-09-27T00:41:49.718Z,100.00
2023-09-27T00:44:16.545Z,100.00
2023-09-27T00:46:44.953Z,100.00
2023-09-27T00:49:13.794Z,100.00
2023-09-27T00:51:41.152Z,100.00
2023-09-27T00:54:09.184Z,100.00
2023-09-27T00:56:35.967Z,100.00
2023-09-27T00:59:04.070Z,100.00
2023-09-27T01:01:32.296Z,100.00
2023-09-27T01:03:59.579Z,100.00
2023-09-27T01:06:27.026Z,100.00
2023-09-27T01:08:54.256Z,100.00
2023-09-27T01:11:21.333Z,100.00
2023-09-27T01:13:51.532Z,100.00
2023-09-27T01:16:18.847Z,100.00
2023-09-27T01:18:45.972Z,100.00
2023-09-27T01:21:12.814Z,100.00
2023-09-27T01:23:42.576Z,100.00
2023-09-27T01:26:12.379Z,100.00
2023-09-27T01:28:42.324Z,100.00
2023-09-27T01:31:09.296Z,100.00
2023-09-27T01:33:39.034Z,100.00
2023-09-27T01:36:06.849Z,100.00
2023-09-27T01:38:34.478Z,100.00
2023-09-27T01:41:02.948Z,100.00
2023-09-27T01:43:30.064Z,100.00
2023-09-27T01:45:57.050Z,100.00
2023-09-27T01:48:24.081Z,100.00
2023-09-27T01:50:51.450Z,100.00
2023-09-27T01:53:18.692Z,100.00
2023-09-27T01:55:46.332Z,100.00
2023-09-27T01:58:13.503Z,100.00
2023-09-27T02:00:40.308Z,100.00
2023-09-27T02:03:07.575Z,100.00
2023-09-27T02:05:37.660Z,100.00
2023-09-27T02:08:05.166Z,100.00
2023-09-27T02:10:32.143Z,100.00
2023-09-27T02:12:59.134Z,100.00
2023-09-27T02:15:26.075Z,100.00
2023-09-27T02:17:53.387Z,100.00
2023-09-27T02:20:20.479Z,100.00
2023-09-27T02:22:51.813Z,100.00
2023-09-27T02:25:19.248Z,100.00
2023-09-27T02:27:46.309Z,100.00
2023-09-27T02:30:13.455Z,100.00
2023-09-27T02:32:42.317Z,100.00
2023-09-27T02:35:10.723Z,100.00
2023-09-27T02:37:39.478Z,100.00
2023-09-27T02:40:13.770Z,100.00
2023-09-27T02:42:45.848Z,100.00
2023-09-27T02:45:13.665Z,100.00
2023-09-27T02:47:45.033Z,100.00
2023-09-27T02:50:12.485Z,100.00
2023-09-27T02:52:42.605Z,100.00
2023-09-27T02:55:10.882Z,100.00
2023-09-27T02:57:38.164Z,100.00
2023-09-27T03:00:06.050Z,100.00
2023-09-27T03:02:34.808Z,100.00
2023-09-27T03:05:04.510Z,100.00
2023-09-27T03:07:31.510Z,100.00
2023-09-27T03:10:00.026Z,100.00
2023-09-27T03:12:27.030Z,100.00
2023-09-27T03:14:54.283Z,100.00
2023-09-27T03:17:24.646Z,100.00
2023-09-27T03:19:51.831Z,100.00
2023-09-27T03:22:19.236Z,100.00
2023-09-27T03:24:48.558Z,100.00
2023-09-27T03:27:15.449Z,100.00
2023-09-27T03:29:42.512Z,100.00
2023-09-27T03:32:10.116Z,100.00
2023-09-27T03:34:37.342Z,100.00
2023-09-27T03:37:06.323Z,100.00
2023-09-27T03:39:37.358Z,100.00
2023-09-27T03:42:05.018Z,100.00
2023-09-27T03:44:32.684Z,100.00
2023-09-27T03:47:00.223Z,100.00
2023-09-27T03:49:27.353Z,100.00
2023-09-27T03:51:54.195Z,100.00
2023-09-27T03:54:21.529Z,100.00
2023-09-27T03:56:48.521Z,100.00
2023-09-27T03:59:26.712Z,100.00
2023-09-27T04:01:53.559Z,100.00
2023-09-27T04:06:47.241Z,100.00
2023-09-27T04:09:14.644Z,100.00
2023-09-27T04:11:41.867Z,100.00
2023-09-27T04:14:08.950Z,100.00
2023-09-27T04:16:36.044Z,100.00
2023-09-27T04:19:05.603Z,100.00
2023-09-27T04:21:32.757Z,100.00
2023-09-27T04:24:01.056Z,100.00
2023-09-27T04:26:31.744Z,100.00
2023-09-27T04:28:58.718Z,100.00
2023-09-27T04:31:25.721Z,100.00
2023-09-27T04:33:52.812Z,100.00
2023-09-27T04:36:19.858Z,100.00
2023-09-27T04:38:47.655Z,100.00
2023-09-27T04:41:16.457Z,100.00
2023-09-27T04:43:44.181Z,100.00
2023-09-27T04:46:20.050Z,100.00
2023-09-27T04:48:47.325Z,100.00
2023-09-27T04:51:14.241Z,100.00
2023-09-27T04:53:41.361Z,100.00
2023-09-27T04:56:09.084Z,100.00
2023-09-27T04:58:44.565Z,100.00
2023-09-27T05:01:12.389Z,100.00
2023-09-27T05:03:39.573Z,100.00
2023-09-27T05:06:06.719Z,100.00
2023-09-27T05:08:33.732Z,100.00
2023-09-27T05:11:00.792Z,100.00
2023-09-27T05:13:27.744Z,100.00
2023-09-27T05:15:54.640Z,100.00
2023-09-27T05:18:24.062Z,100.00
2023-09-27T05:20:51.380Z,100.00
2023-09-27T05:23:18.281Z,100.00
2023-09-27T05:25:45.693Z,100.00
2023-09-27T05:28:12.526Z,100.00
2023-09-27T05:30:39.373Z,100.00
2023-09-27T05:33:06.274Z,100.00
2023-09-27T05:35:33.263Z,100.00
2023-09-27T05:38:00.339Z,100.00
2023-09-27T05:40:27.708Z,100.00
2023-09-27T05:42:54.661Z,100.00
2023-09-27T05:45:21.541Z,100.00
2023-09-27T05:47:48.896Z,100.00
2023-09-27T05:50:15.830Z,100.00
2023-09-27T05:52:47.874Z,100.00
2023-09-27T05:55:17.791Z,100.00
2023-09-27T05:57:45.494Z,100.00
2023-09-27T06:00:23.403Z,100.00
2023-09-27T06:02:51.270Z,100.00
2023-09-27T06:05:21.907Z,100.00
2023-09-27T06:07:49.571Z,100.00
2023-09-27T06:10:17.734Z,100.00
2023-09-27T06:12:44.857Z,100.00
2023-09-27T06:15:13.497Z,100.00
2023-09-27T06:17:41.034Z,100.00
2023-09-27T06:20:13.567Z,100.00
2023-09-27T06:22:41.754Z,100.00
2023-09-27T06:25:09.229Z,100.00
2023-09-27T06:27:36.540Z,100.00
2023-09-27T06:30:06.505Z,100.00
2023-09-27T06:32:34.711Z,100.00
2023-09-27T06:35:11.836Z,100.00
2023-09-27T06:37:38.934Z,100.00
2023-09-27T06:40:09.537Z,100.00
2023-09-27T06:42:37.280Z,100.00
2023-09-27T06:45:05.310Z,99.69
2023-09-27T06:47:36.226Z,98.56
2023-09-27T06:50:04.302Z,98.46
2023-09-27T06:52:31.633Z,97.72
2023-09-27T06:54:58.939Z,97.45
2023-09-27T06:57:25.802Z,97.43
2023-09-27T06:59:52.925Z,96.41
2023-09-27T07:02:19.851Z,95.43
2023-09-27T07:04:47.761Z,94.50
2023-09-27T07:07:14.741Z,91.81
2023-09-27T07:09:42.085Z,90.85
2023-09-27T07:12:09.792Z,92.52
2023-09-27T07:14:37.459Z,90.37
2023-09-27T07:17:05.551Z,90.67
2023-09-27T07:19:33.254Z,89.85
2023-09-27T07:22:00.800Z,89.42
2023-09-27T07:24:29.145Z,88.27
2023-09-27T07:26:56.137Z,87.77
2023-09-27T07:29:23.072Z,89.40
2023-09-27T07:31:50.851Z,88.47
2023-09-27T07:34:18.247Z,88.22
2023-09-27T07:36:47.572Z,86.91
2023-09-27T07:39:17.001Z,84.02
2023-09-27T07:41:44.147Z,82.48
2023-09-27T07:44:14.051Z,80.40
2023-09-27T07:46:42.078Z,80.56
2023-09-27T07:49:09.526Z,80.45
2023-09-27T07:51:36.461Z,78.38
2023-09-27T07:54:09.380Z,76.43
2023-09-27T07:56:41.692Z,74.27
2023-09-27T07:59:08.583Z,74.39
2023-09-27T08:01:35.573Z,75.05
2023-09-27T08:04:11.859Z,72.25
2023-09-27T08:06:40.062Z,70.53
2023-09-27T08:09:20.289Z,70.35
2023-09-27T08:11:51.951Z,70.39
2023-09-27T08:14:21.139Z,71.11
2023-09-27T08:16:48.750Z,71.07
2023-09-27T08:19:16.018Z,70.04
2023-09-27T08:21:57.712Z,68.75
2023-09-27T08:24:27.609Z,64.53
2023-09-27T08:26:54.387Z,64.26
2023-09-27T08:29:22.912Z,64.43
2023-09-27T08:31:49.834Z,64.36
2023-09-27T08:34:17.419Z,63.13
2023-09-27T08:36:44.265Z,63.25
2023-09-27T08:39:11.146Z,62.21
2023-09-27T08:41:39.579Z,62.32
2023-09-27T08:44:09.002Z,62.35
2023-09-27T08:46:37.257Z,62.18
2023-09-27T08:49:05.490Z,61.28
2023-09-27T08:51:32.688Z,60.36
2023-09-27T08:53:59.588Z,60.26
2023-09-27T08:56:28.850Z,58.85
2023-09-27T08:58:56.644Z,58.27
2023-09-27T09:01:25.522Z,57.20
2023-09-27T09:03:54.103Z,58.38
2023-09-27T09:06:21.978Z,57.23
2023-09-27T09:08:48.932Z,56.46
2023-09-27T09:11:22.491Z,54.89
2023-09-27T09:14:06.208Z,54.78
2023-09-27T09:16:41.672Z,55.99
2023-09-27T09:20:02.357Z,56.12
2023-09-27T09:22:31.891Z,55.51
2023-09-27T09:25:00.913Z,54.31
2023-09-27T09:27:27.715Z,54.49
2023-09-27T09:29:55.025Z,54.84
2023-09-27T09:32:26.074Z,53.10
2023-09-27T09:34:55.432Z,53.36
2023-09-27T09:37:35.123Z,53.69
2023-09-27T09:40:16.616Z,53.91
2023-09-27T09:42:44.702Z,53.51
2023-09-27T09:45:13.808Z,54.77
2023-09-27T09:47:43.367Z,53.33
2023-09-27T09:50:20.980Z,53.82
2023-09-27T09:52:55.439Z,54.59
2023-09-27T09:55:45.159Z,54.38
2023-09-27T09:58:27.284Z,53.87
2023-09-27T10:00:55.444Z,53.13
2023-09-27T10:03:23.849Z,53.31
2023-09-27T10:05:52.993Z,53.37
2023-09-27T10:08:20.963Z,52.59
2023-09-27T10:10:48.466Z,52.43
2023-09-27T10:13:16.498Z,51.38
2023-09-27T10:15:44.988Z,51.61
2023-09-27T10:18:24.423Z,52.90
2023-09-27T10:21:20.150Z,52.92
2023-09-27T10:24:00.142Z,52.58
2023-09-27T10:26:30.785Z,52.46
2023-09-27T10:29:16.647Z,52.65
2023-09-27T10:31:57.164Z,53.95
2023-09-27T10:34:26.998Z,52.29
2023-09-27T10:37:14.961Z,53.10
2023-09-27T10:40:22.623Z,52.73
2023-09-27T10:42:50.712Z,51.34
2023-09-27T10:45:18.679Z,53.72
2023-09-27T10:47:48.526Z,52.16
2023-09-27T10:50:18.091Z,52.48
2023-09-27T10:52:48.141Z,55.27
2023-09-27T10:55:15.713Z,53.56
2023-09-27T10:57:42.942Z,52.37
2023-09-27T11:00:13.746Z,53.00
2023-09-27T11:02:43.205Z,52.44
2023-09-27T11:05:10.741Z,53.61
2023-09-27T11:07:50.456Z,52.81
2023-09-27T11:10:31.534Z,53.65
2023-09-27T11:13:11.693Z,54.48
2023-09-27T11:15:39.959Z,54.75
2023-09-27T11:18:12.174Z,53.51
2023-09-27T11:20:41.421Z,53.31
2023-09-27T11:23:19.801Z,51.80
2023-09-27T11:25:50.884Z,52.28
2023-09-27T11:28:18.822Z,51.91
2023-09-27T11:30:52.384Z,53.80
2023-09-27T11:33:20.754Z,52.85
2023-09-27T11:35:50.650Z,51.84
2023-09-27T11:38:17.974Z,51.96
2023-09-27T11:40:45.436Z,51.54
2023-09-27T11:43:13.928Z,53.08
2023-09-27T11:45:54.372Z,51.50
2023-09-27T11:48:36.549Z,51.83
2023-09-27T11:51:04.440Z,51.04
2023-09-27T11:53:31.957Z,50.88
2023-09-27T11:56:00.982Z,52.31
2023-09-27T11:58:28.487Z,51.43
2023-09-27T12:00:55.415Z,51.13
2023-09-27T12:03:22.388Z,51.39
2023-09-27T12:05:49.892Z,50.82
2023-09-27T12:08:26.591Z,50.39
2023-09-27T12:10:53.686Z,49.19
2023-09-27T12:13:20.723Z,49.17
2023-09-27T12:16:09.062Z,49.78
2023-09-27T12:18:39.221Z,50.86
2023-09-27T12:21:06.166Z,50.74
2023-09-27T12:23:36.368Z,51.29
2023-09-27T12:26:03.728Z,50.87
2023-09-27T12:28:30.649Z,50.68
2023-09-27T12:31:16.121Z,50.94
2023-09-27T12:33:43.102Z,50.39
2023-09-27T12:36:28.483Z,51.63
2023-09-27T12:38:55.625Z,50.66
2023-09-27T12:41:26.040Z,51.58
2023-09-27T12:43:53.459Z,50.51
2023-09-27T12:46:21.352Z,50.73
2023-09-27T12:48:49.351Z,51.62
2023-09-27T12:51:16.254Z,50.65
2023-09-27T12:53:49.511Z,50.63
2023-09-27T12:56:18.702Z,49.17
2023-09-27T12:59:05.774Z,49.47
2023-09-27T13:01:32.941Z,49.37
2023-09-27T13:03:59.910Z,50.26
2023-09-27T13:06:26.898Z,48.43
2023-09-27T13:08:56.696Z,48.78
2023-09-27T13:11:23.726Z,48.19
2023-09-27T13:14:09.156Z,48.79
2023-09-27T13:17:13.146Z,48.53
2023-09-27T13:19:40.118Z,48.76
2023-09-27T13:22:07.875Z,49.77
2023-09-27T13:24:34.732Z,49.41
2023-09-27T13:27:20.441Z,49.52
2023-09-27T13:30:29.295Z,48.64
2023-09-27T13:33:07.314Z,48.83
2023-09-27T13:35:36.662Z,49.31
2023-09-27T13:38:08.264Z,48.85
2023-09-27T13:40:40.550Z,49.00
2023-09-27T13:43:07.539Z,50.13
2023-09-27T13:45:35.819Z,50.46
2023-09-27T13:48:22.380Z,50.32
2023-09-27T13:51:07.710Z,49.71
2023-09-27T13:53:37.669Z,49.69
2023-09-27T13:56:04.772Z,50.49
2023-09-27T13:58:31.938Z,50.60
2023-09-27T14:01:17.627Z,50.60
2023-09-27T14:03:44.644Z,50.47
2023-09-27T14:06:12.059Z,49.19
2023-09-27T14:08:39.093Z,50.47
2023-09-27T14:11:05.920Z,51.90
2023-09-27T14:13:35.746Z,54.36
2023-09-27T14:16:02.834Z,53.82
2023-09-27T14:18:29.748Z,54.48
2023-09-27T14:20:56.733Z,52.86
2023-09-27T14:23:23.487Z,52.57
2023-09-27T14:25:50.385Z,52.82
2023-09-27T14:28:17.978Z,54.36
2023-09-27T14:31:07.183Z,53.00
2023-09-27T14:33:35.075Z,54.40
2023-09-27T14:36:05.565Z,52.33
2023-09-27T14:38:36.174Z,53.51
2023-09-27T14:41:12.468Z,55.46
2023-09-27T14:44:01.208Z,56.96
2023-09-27T14:46:28.522Z,56.80
2023-09-27T14:48:55.689Z,57.80
2023-09-27T14:51:22.576Z,58.50
2023-09-27T14:53:49.399Z,57.74
2023-09-27T14:56:18.863Z,59.29
2023-09-27T14:58:47.977Z,60.55
2023-09-27T15:01:18.160Z,57.20
2023-09-27T15:03:45.795Z,59.14
2023-09-27T15:06:12.616Z,60.50
2023-09-27T15:08:39.434Z,62.27
2023-09-27T15:11:06.400Z,64.15
2023-09-27T15:13:52.395Z,64.87
2023-09-27T15:16:20.564Z,65.50
2023-09-27T15:18:48.031Z,66.32
2023-09-27T15:21:18.026Z,66.97
2023-09-27T15:23:45.736Z,66.75
2023-09-27T15:26:30.964Z,67.09
2023-09-27T15:28:57.788Z,67.67
2023-09-27T15:31:58.295Z,68.59
2023-09-27T15:38:15.130Z,70.48
2023-09-27T15:40:42.475Z,70.75
2023-09-27T15:43:11.100Z,71.67
2023-09-27T15:45:41.644Z,72.43
2023-09-27T15:48:12.658Z,72.34
2023-09-27T15:51:02.128Z,72.81
2023-09-27T15:53:32.974Z,73.53
2023-09-27T15:56:01.779Z,73.23
2023-09-27T15:58:32.324Z,74.11
2023-09-27T16:01:08.824Z,74.84
2023-09-27T16:03:36.610Z,74.91
2023-09-27T16:06:05.629Z,75.43
2023-09-27T16:08:33.028Z,76.78
2023-09-27T16:11:22.147Z,77.95
2023-09-27T16:13:49.225Z,79.15
2023-09-27T16:16:16.531Z,79.94
2023-09-27T16:19:02.843Z,79.75
2023-09-27T16:21:50.646Z,80.03
2023-09-27T16:24:17.912Z,79.65
2023-09-27T16:26:45.282Z,73.63
2023-09-27T16:29:12.402Z,79.74
2023-09-27T16:31:58.033Z,81.23
2023-09-27T16:34:25.746Z,82.21
2023-09-27T16:36:53.149Z,82.78
2023-09-27T16:42:07.361Z,85.69
2023-09-27T16:44:38.797Z,84.59
2023-09-27T16:47:11.914Z,85.71
2023-09-27T16:49:39.646Z,85.08
2023-09-27T16:52:09.538Z,85.36
2023-09-27T16:54:54.489Z,85.43
2023-09-27T16:57:22.895Z,85.98
2023-09-27T17:00:11.623Z,86.06
2023-09-27T17:02:39.586Z,86.18
2023-09-27T17:05:08.348Z,86.50
2023-09-27T17:07:56.876Z,86.55
2023-09-27T17:10:23.693Z,86.33
2023-09-27T17:12:50.450Z,87.57
2023-09-27T17:15:35.863Z,87.54
2023-09-27T17:18:02.954Z,88.09
2023-09-27T17:20:30.045Z,88.37
2023-09-27T17:22:56.824Z,88.33
2023-09-27T17:25:42.719Z,88.90
2023-09-27T17:28:31.292Z,88.89
2023-09-27T17:31:00.416Z,89.13
2023-09-27T17:36:30.599Z,88.98
2023-09-27T17:39:16.422Z,89.40
2023-09-27T17:41:44.662Z,88.83
2023-09-27T17:44:11.739Z,89.70
2023-09-27T17:46:59.824Z,89.97
2023-09-27T17:49:30.053Z,90.36
2023-09-27T17:51:57.165Z,90.44
2023-09-27T17:54:24.771Z,90.79
2023-09-27T17:56:54.762Z,90.39
2023-09-27T17:59:21.712Z,91.33
2023-09-27T18:01:52.018Z,92.11
2023-09-27T18:04:22.024Z,92.35
2023-09-27T18:06:51.541Z,93.19
2023-09-27T18:09:18.745Z,93.44
2023-09-27T18:11:45.682Z,93.36
2023-09-27T18:17:16.351Z,93.92
2023-09-27T18:19:43.623Z,93.63
2023-09-27T18:22:10.699Z,94.68
2023-09-27T18:24:38.181Z,94.00
2023-09-27T18:30:08.405Z,94.81
2023-09-27T18:32:35.660Z,95.34
2023-09-27T18:35:21.210Z,95.66
2023-09-27T18:37:50.950Z,95.99
2023-09-27T18:40:39.174Z,96.31
2023-09-27T18:43:06.293Z,96.56
2023-09-27T18:45:52.077Z,96.92
2023-09-27T18:48:37.529Z,97.22
2023-09-27T18:51:23.742Z,98.25
2023-09-27T18:54:10.779Z,97.15
2023-09-27T18:56:38.083Z,97.28
2023-09-27T18:59:23.858Z,97.21
2023-09-27T19:02:18.648Z,98.49
2023-09-27T19:04:45.683Z,98.06
2023-09-27T19:07:31.297Z,98.35
2023-09-27T19:09:58.908Z,98.98
2023-09-27T19:12:44.384Z,99.38
2023-09-27T19:17:58.875Z,99.72
2023-09-27T19:20:26.726Z,99.75
2023-09-27T19:23:12.301Z,100.00
2023-09-27T19:25:39.535Z,100.00
2023-09-27T19:28:25.124Z,100.00
2023-09-27T19:30:52.185Z,100.00
2023-09-27T19:33:19.124Z,100.00
2023-09-27T19:36:05.033Z,100.00
2023-09-27T19:38:32.601Z,100.00
2023-09-27T19:41:01.705Z,100.00
2023-09-27T19:43:28.777Z,100.00
2023-09-27T19:45:55.872Z,100.00
2023-09-27T19:48:41.149Z,100.00
2023-09-27T19:51:08.232Z,100.00
2023-09-27T19:53:54.002Z,100.00
2023-09-27T19:56:21.911Z,100.00
2023-09-27T19:58:51.110Z,100.00
2023-09-27T20:01:50.825Z,100.00
2023-09-27T20:04:17.875Z,100.00
2023-09-27T20:06:44.777Z,100.00
2023-09-27T20:09:12.029Z,100.00
2023-09-27T20:11:39.130Z,100.00
2023-09-27T20:14:09.792Z,100.00
2023-09-27T20:16:38.115Z,100.00
2023-09-27T20:22:13.752Z,100.00
2023-09-27T20:24:40.918Z,100.00
2023-09-27T20:30:31.156Z,100.00
2023-09-27T20:32:58.148Z,100.00
2023-09-27T20:35:43.481Z,100.00
2023-09-27T20:38:10.695Z,100.00
2023-09-27T20:40:38.217Z,100.00
2023-09-27T20:43:23.979Z,100.00
2023-09-27T20:45:51.443Z,100.00
2023-09-27T20:48:18.390Z,100.00
2023-09-27T20:50:45.257Z,100.00
2023-09-27T20:53:12.271Z,100.00
2023-09-27T20:55:39.409Z,100.00
2023-09-27T20:58:06.721Z,100.00
2023-09-27T21:01:11.134Z,100.00
2023-09-27T21:03:38.600Z,100.00
2023-09-27T21:06:06.106Z,100.00
2023-09-27T21:08:33.087Z,100.00
2023-09-27T21:11:00.099Z,100.00
2023-09-27T21:13:46.150Z,100.00
2023-09-27T21:16:13.365Z,100.00
2023-09-27T21:24:27.282Z,100.00
2023-09-27T21:26:54.446Z,100.00
2023-09-27T21:29:40.223Z,100.00
2023-09-27T21:32:07.338Z,100.00
2023-09-27T21:34:52.797Z,100.00
2023-09-27T21:37:22.813Z,100.00
2023-09-27T21:40:27.640Z,100.00
2023-09-27T21:43:12.992Z,100.00
2023-09-27T21:45:40.856Z,100.00
2023-09-27T21:48:26.637Z,100.00
2023-09-27T21:51:12.496Z,100.00
2023-09-27T21:53:41.135Z,100.00
2023-09-27T21:56:11.558Z,100.00
2023-09-27T21:58:38.680Z,100.00
2023-09-27T22:01:14.166Z,100.00
2023-09-27T22:09:47.587Z,100.00
2023-09-27T22:12:14.731Z,100.00
2023-09-27T22:15:04.052Z,100.00
2023-09-27T22:20:21.024Z,100.00
2023-09-27T22:22:48.407Z,100.00
2023-09-27T22:25:15.831Z,100.00
2023-09-27T22:27:50.341Z,100.00
2023-09-27T22:30:17.479Z,100.00
2023-09-27T22:32:46.448Z,100.00
2023-09-27T22:35:50.807Z,100.00
2023-09-27T22:38:19.565Z,100.00
2023-09-27T22:40:49.942Z,100.00
2023-09-27T22:43:17.646Z,100.00
2023-09-27T22:46:03.846Z,100.00
2023-09-27T22:48:31.072Z,100.00
2023-09-27T22:51:01.402Z,100.00
2023-09-27T22:53:28.683Z,100.00
2023-09-27T22:56:14.461Z,100.00
2023-09-27T22:59:03.048Z,100.00
2023-09-27T23:01:48.341Z,100.00
2023-09-27T23:04:16.539Z,100.00
2023-09-27T23:07:01.366Z,100.00
2023-09-27T23:09:35.805Z,100.00
2023-09-27T23:12:20.903Z,100.00
2023-09-27T23:15:21.249Z,100.00
2023-09-27T23:18:12.390Z,100.00
2023-09-27T23:20:40.929Z,100.00
2023-09-27T23:26:01.898Z,100.00
2023-09-27T23:28:47.430Z,100.00
2023-09-27T23:34:36.222Z,100.00
2023-09-27T23:37:17.358Z,100.00
2023-09-27T23:40:11.053Z,100.00
2023-09-27T23:42:44.199Z,100.00
2023-09-27T23:45:12.347Z,100.00
2023-09-27T23:48:16.823Z,100.00
2023-09-27T23:54:10.855Z,100.00
2023-09-27T23:56:37.624Z,100.00
2023-09-27T23:59:09.581Z,100.00
